< < Back
Terminal Aerodrome Forecast


Current Version              Previous Versions:   1  2  3  4  5  6  7  8  9  

Terminal Aerodrome Forecast

380
FTUS42 KGSP 191700
TAFAND
TAF
KAND 191736Z 1918/2018 25003KT P6SM FEW250
     FM201500 22006KT P6SM FEW250=

Latest METAR

733
SAUS70 KWBC 201300 RRI
MTRAND
METAR KAND 201256Z AUTO 00000KT 10SM CLR 11/09 A3014 RMK AO2 SLP203
T01060094


USA.gov is the U.S. government's official web portal to all federal, state and local government web resources and services.